createdAt,value
2018-08-10T00:00:33.463Z,18.00
2018-08-10T00:03:01.968Z,17.90
2018-08-10T00:05:30.673Z,17.80
2018-08-10T00:07:59.170Z,17.70
2018-08-10T00:10:28.405Z,17.70
2018-08-10T00:12:56.971Z,17.70
2018-08-10T00:15:25.643Z,17.70
2018-08-10T00:17:54.406Z,17.60
2018-08-10T00:20:23.001Z,17.60
2018-08-10T00:22:51.821Z,17.50
2018-08-10T00:25:20.466Z,17.40
2018-08-10T00:27:49.102Z,17.40
2018-08-10T00:30:19.079Z,17.40
2018-08-10T00:32:48.903Z,17.30
2018-08-10T00:35:17.745Z,17.30
2018-08-10T00:37:47.526Z,17.30
2018-08-10T00:40:20.569Z,17.30
2018-08-10T00:42:49.187Z,17.30
2018-08-10T00:45:18.454Z,17.30
2018-08-10T00:47:47.679Z,17.30
2018-08-10T00:50:17.199Z,17.30
2018-08-10T00:52:46.818Z,17.30
2018-08-10T00:55:16.887Z,17.30
2018-08-10T00:57:46.185Z,17.20
2018-08-10T01:00:19.452Z,17.20
2018-08-10T01:02:47.980Z,17.20
2018-08-10T01:05:16.583Z,17.10
2018-08-10T01:07:45.031Z,17.10
2018-08-10T01:10:16.631Z,17.10
2018-08-10T01:12:45.163Z,17.10
2018-08-10T01:15:15.419Z,17.00
2018-08-10T01:17:44.579Z,17.00
2018-08-10T01:20:20.358Z,16.90
2018-08-10T01:22:54.143Z,16.90
2018-08-10T01:25:24.066Z,16.90
2018-08-10T01:27:57.986Z,16.90
2018-08-10T01:30:28.126Z,16.90
2018-08-10T01:32:57.175Z,16.90
2018-08-10T01:35:26.364Z,16.90
2018-08-10T01:37:56.214Z,16.80
2018-08-10T01:40:24.743Z,16.90
2018-08-10T01:42:53.371Z,16.80
2018-08-10T01:45:22.006Z,16.70
2018-08-10T01:47:50.514Z,16.70
2018-08-10T01:50:19.024Z,16.60
2018-08-10T01:52:47.583Z,16.60
2018-08-10T01:55:16.298Z,16.60
2018-08-10T01:57:44.802Z,16.60
2018-08-10T02:00:13.372Z,16.60
2018-08-10T02:02:41.846Z,16.60
2018-08-10T02:05:12.476Z,16.60
2018-08-10T02:07:41.530Z,16.60
2018-08-10T02:10:12.590Z,16.60
2018-08-10T02:12:42.076Z,16.60
2018-08-10T02:15:12.814Z,16.60
2018-08-10T02:17:41.377Z,16.50
2018-08-10T02:20:13.165Z,16.60
2018-08-10T02:22:42.082Z,16.60
2018-08-10T02:25:12.255Z,16.60
2018-08-10T02:27:41.750Z,16.60
2018-08-10T02:30:11.895Z,16.60
2018-08-10T02:32:41.380Z,16.60
2018-08-10T02:35:10.162Z,16.60
2018-08-10T02:37:39.481Z,16.60
2018-08-10T02:40:11.386Z,16.60
2018-08-10T02:42:40.015Z,16.60
2018-08-10T02:45:08.918Z,16.60
2018-08-10T02:47:37.571Z,16.60
2018-08-10T02:50:06.274Z,16.60
2018-08-10T02:52:34.882Z,16.50
2018-08-10T02:55:03.599Z,16.40
2018-08-10T02:57:32.124Z,16.50
2018-08-10T03:00:00.622Z,16.50
2018-08-10T03:02:29.308Z,16.50
2018-08-10T03:04:57.819Z,16.50
2018-08-10T03:07:26.295Z,16.50
2018-08-10T03:09:54.946Z,16.50
2018-08-10T03:12:23.534Z,16.50
2018-08-10T03:14:52.205Z,16.50
2018-08-10T03:17:20.749Z,16.50
2018-08-10T03:19:49.263Z,16.40
2018-08-10T03:22:18.201Z,16.30
2018-08-10T03:24:46.649Z,16.30
2018-08-10T03:27:15.163Z,16.30
2018-08-10T03:29:43.786Z,16.30
2018-08-10T03:32:12.323Z,16.30
2018-08-10T03:34:41.051Z,16.30
2018-08-10T03:37:09.518Z,16.30
2018-08-10T03:39:38.139Z,16.30
2018-08-10T03:42:06.802Z,16.30
2018-08-10T03:44:35.595Z,16.30
2018-08-10T03:47:04.162Z,16.30
2018-08-10T03:49:32.645Z,16.40
2018-08-10T03:52:01.320Z,16.40
2018-08-10T03:54:29.918Z,16.50
2018-08-10T03:56:58.707Z,16.40
2018-08-10T03:59:27.207Z,16.30
2018-08-10T04:01:55.701Z,16.30
2018-08-10T04:04:24.267Z,16.20
2018-08-10T04:06:52.886Z,16.20
2018-08-10T04:09:21.455Z,16.20
2018-08-10T04:11:50.132Z,16.20
2018-08-10T04:14:18.778Z,16.20
2018-08-10T04:16:47.315Z,16.20
2018-08-10T04:19:16.047Z,16.10
2018-08-10T04:21:45.122Z,16.10
2018-08-10T04:24:13.622Z,16.00
2018-08-10T04:26:42.309Z,16.00
2018-08-10T04:29:11.011Z,16.00
2018-08-10T04:31:39.532Z,16.00
2018-08-10T04:34:08.062Z,16.00
2018-08-10T04:36:36.545Z,16.10
2018-08-10T04:39:10.034Z,16.00
2018-08-10T04:41:38.731Z,16.10
2018-08-10T04:44:07.339Z,16.10
2018-08-10T04:46:35.855Z,16.00
2018-08-10T04:49:04.475Z,16.00
2018-08-10T04:51:33.154Z,16.00
2018-08-10T04:54:01.698Z,16.00
2018-08-10T04:56:30.175Z,16.00
2018-08-10T04:58:58.722Z,16.00
2018-08-10T05:01:27.535Z,15.90
2018-08-10T05:03:56.142Z,16.00
2018-08-10T05:06:24.711Z,16.00
2018-08-10T05:08:53.292Z,16.00
2018-08-10T05:11:21.943Z,16.00
2018-08-10T05:13:50.417Z,16.00
2018-08-10T05:16:19.396Z,16.00
2018-08-10T05:18:48.031Z,15.90
2018-08-10T05:21:16.626Z,15.90
2018-08-10T05:23:45.218Z,15.90
2018-08-10T05:26:13.835Z,15.90
2018-08-10T05:28:42.330Z,15.90
2018-08-10T05:31:10.893Z,15.90
2018-08-10T05:33:39.449Z,15.90
2018-08-10T05:36:08.354Z,15.80
2018-08-10T05:38:37.024Z,15.80
2018-08-10T05:41:05.639Z,15.90
2018-08-10T05:43:34.359Z,15.80
2018-08-10T05:46:02.890Z,15.80
2018-08-10T05:48:36.726Z,15.80
2018-08-10T05:51:05.536Z,15.80
2018-08-10T05:53:34.054Z,15.80
2018-08-10T05:56:02.571Z,15.90
2018-08-10T05:58:31.240Z,15.80
2018-08-10T06:00:59.767Z,15.90
2018-08-10T06:03:28.836Z,15.90
2018-08-10T06:05:57.267Z,15.90
2018-08-10T06:08:25.763Z,16.00
2018-08-10T06:10:54.478Z,16.00
2018-08-10T06:13:23.244Z,16.00
2018-08-10T06:15:51.859Z,16.00
2018-08-10T06:18:20.482Z,16.00
2018-08-10T06:20:48.982Z,16.00
2018-08-10T06:23:17.803Z,16.10
2018-08-10T06:25:46.452Z,16.10
2018-08-10T06:28:14.921Z,16.20
2018-08-10T06:30:43.421Z,16.20
2018-08-10T06:33:11.911Z,16.20
2018-08-10T06:35:40.420Z,16.20
2018-08-10T06:38:08.933Z,16.30
2018-08-10T06:40:37.478Z,16.30
2018-08-10T06:43:06.413Z,16.40
2018-08-10T06:45:41.417Z,16.40
2018-08-10T06:48:10.183Z,16.50
2018-08-10T06:50:38.787Z,16.60
2018-08-10T06:53:07.522Z,16.60
2018-08-10T06:55:35.974Z,16.70
2018-08-10T06:58:05.064Z,16.80
2018-08-10T07:00:33.684Z,16.90
2018-08-10T07:03:02.039Z,17.00
2018-08-10T07:05:30.545Z,17.10
2018-08-10T07:07:59.072Z,17.20
2018-08-10T07:10:27.721Z,17.30
2018-08-10T07:12:56.437Z,17.40
2018-08-10T07:15:24.935Z,17.50
2018-08-10T07:17:53.463Z,17.50
2018-08-10T07:20:22.015Z,17.50
2018-08-10T07:22:50.608Z,17.60
2018-08-10T07:25:19.118Z,17.60
2018-08-10T07:27:47.642Z,17.70
2018-08-10T07:30:16.430Z,17.70
2018-08-10T07:32:45.243Z,17.80
2018-08-10T07:35:13.794Z,17.70
2018-08-10T07:37:42.287Z,17.80
2018-08-10T07:40:10.975Z,17.90
2018-08-10T07:42:39.587Z,18.00
2018-08-10T07:45:08.103Z,18.00
2018-08-10T07:47:36.581Z,18.10
2018-08-10T07:50:05.467Z,18.20
2018-08-10T07:52:34.140Z,18.30
2018-08-10T07:55:02.682Z,18.40
2018-08-10T07:57:31.225Z,18.50
2018-08-10T07:59:59.799Z,18.40
2018-08-10T08:02:28.686Z,18.40
2018-08-10T08:04:57.510Z,18.50
2018-08-10T08:07:26.072Z,18.60
2018-08-10T08:09:54.762Z,18.70
2018-08-10T08:12:23.324Z,18.80
2018-08-10T08:14:52.198Z,18.80
2018-08-10T08:17:20.695Z,18.90
2018-08-10T08:19:49.330Z,19.00
2018-08-10T08:22:19.146Z,19.00
2018-08-10T08:24:48.053Z,18.90
2018-08-10T08:27:17.914Z,18.80
2018-08-10T08:29:46.523Z,18.80
2018-08-10T08:32:15.060Z,18.90
2018-08-10T08:34:43.939Z,19.00
2018-08-10T08:37:12.643Z,19.00
2018-08-10T08:40:47.985Z,19.00
2018-08-10T08:43:27.671Z,19.10
2018-08-10T08:46:01.882Z,19.20
2018-08-10T08:48:32.770Z,19.30
2018-08-10T08:51:05.566Z,19.20
2018-08-10T08:53:34.299Z,19.30
2018-08-10T08:56:08.170Z,19.30
2018-08-10T08:58:37.547Z,19.30
2018-08-10T09:01:06.899Z,19.40
2018-08-10T09:03:46.567Z,19.50
2018-08-10T09:06:15.226Z,19.60
2018-08-10T09:08:55.960Z,19.60
2018-08-10T09:11:24.504Z,19.70
2018-08-10T09:15:06.675Z,19.80
2018-08-10T09:17:35.412Z,19.90
2018-08-10T09:20:05.109Z,19.90
2018-08-10T09:22:33.715Z,19.90
2018-08-10T09:25:02.295Z,19.90
2018-08-10T09:27:30.865Z,20.00
2018-08-10T09:29:59.690Z,20.10
2018-08-10T09:32:28.209Z,20.00
2018-08-10T09:34:56.867Z,19.80
2018-08-10T09:37:25.613Z,19.70
2018-08-10T09:39:54.350Z,19.90
2018-08-10T09:42:22.928Z,20.10
2018-08-10T09:44:51.457Z,20.30
2018-08-10T09:47:20.085Z,20.30
2018-08-10T09:49:49.635Z,20.40
2018-08-10T09:52:18.475Z,20.60
2018-08-10T09:55:39.789Z,20.50
2018-08-10T09:58:13.106Z,20.40
2018-08-10T10:00:47.121Z,20.50
2018-08-10T10:03:25.806Z,20.60
2018-08-10T10:05:57.025Z,20.70
2018-08-10T10:08:26.107Z,20.90
2018-08-10T10:10:54.632Z,21.00
2018-08-10T10:13:23.620Z,21.00
2018-08-10T10:15:52.221Z,20.90
2018-08-10T10:18:20.758Z,20.80
2018-08-10T10:20:49.529Z,20.90
2018-08-10T10:23:18.118Z,21.00
2018-08-10T10:25:46.751Z,21.00
2018-08-10T10:28:15.303Z,21.10
2018-08-10T10:30:44.349Z,21.20
2018-08-10T10:33:13.008Z,21.40
2018-08-10T10:35:41.633Z,21.40
2018-08-10T10:38:10.259Z,21.20
2018-08-10T10:40:38.835Z,21.20
2018-08-10T10:43:07.385Z,21.20
2018-08-10T10:45:36.023Z,21.30
2018-08-10T10:48:04.571Z,21.40
2018-08-10T10:50:33.112Z,21.50
2018-08-10T10:53:01.636Z,21.50
2018-08-10T10:55:30.260Z,21.60
2018-08-10T10:57:58.845Z,21.60
2018-08-10T11:00:27.421Z,21.70
2018-08-10T11:02:56.142Z,21.70
2018-08-10T11:05:24.795Z,21.70
2018-08-10T11:07:53.336Z,21.80
2018-08-10T11:10:22.165Z,22.10
2018-08-10T11:12:50.813Z,22.00
2018-08-10T11:15:19.407Z,21.70
2018-08-10T11:17:47.984Z,21.60
2018-08-10T11:20:16.779Z,21.50
2018-08-10T11:22:45.424Z,21.30
2018-08-10T11:25:15.051Z,21.10
2018-08-10T11:27:44.538Z,21.10
2018-08-10T11:30:13.538Z,21.30
2018-08-10T11:32:42.183Z,21.40
2018-08-10T11:35:10.812Z,21.50
2018-08-10T11:37:39.734Z,21.70
2018-08-10T11:40:11.780Z,21.80
2018-08-10T11:42:40.999Z,21.90
2018-08-10T11:45:11.807Z,22.00
2018-08-10T11:47:40.398Z,22.10
2018-08-10T11:50:09.125Z,22.20
2018-08-10T11:52:37.782Z,22.20
2018-08-10T11:55:07.641Z,22.20
2018-08-10T11:57:36.223Z,22.00
2018-08-10T12:00:05.954Z,21.90
2018-08-10T12:02:34.405Z,21.80
2018-08-10T12:05:02.946Z,21.70
2018-08-10T12:07:31.691Z,21.60
2018-08-10T12:10:00.196Z,21.50
2018-08-10T12:12:28.797Z,21.50
2018-08-10T12:14:57.364Z,21.50
2018-08-10T12:17:25.896Z,21.40
2018-08-10T12:19:54.475Z,21.40
2018-08-10T12:22:22.995Z,21.30
2018-08-10T12:24:51.666Z,21.40
2018-08-10T12:27:20.244Z,21.40
2018-08-10T12:29:48.890Z,21.60
2018-08-10T12:32:17.415Z,21.70
2018-08-10T12:34:46.014Z,21.90
2018-08-10T12:37:14.506Z,21.90
2018-08-10T12:39:43.087Z,21.90
2018-08-10T12:42:11.610Z,22.00
2018-08-10T12:44:40.238Z,21.90
2018-08-10T12:47:08.788Z,21.80
2018-08-10T12:49:37.552Z,21.90
2018-08-10T12:52:06.170Z,22.00
2018-08-10T12:54:34.709Z,22.00
2018-08-10T12:57:03.346Z,22.00
2018-08-10T12:59:31.996Z,22.00
2018-08-10T13:02:00.702Z,22.00
2018-08-10T13:04:29.343Z,22.00
2018-08-10T13:06:57.891Z,22.00
2018-08-10T13:09:26.617Z,22.00
2018-08-10T13:11:55.172Z,21.90
2018-08-10T13:14:23.785Z,21.90
2018-08-10T13:16:52.331Z,21.90
2018-08-10T13:19:20.966Z,22.00
2018-08-10T13:21:49.751Z,22.00
2018-08-10T13:24:18.251Z,22.10
2018-08-10T13:26:46.924Z,22.10
2018-08-10T13:29:15.483Z,22.00
2018-08-10T13:31:44.203Z,21.90
2018-08-10T13:34:12.925Z,21.90
2018-08-10T13:36:41.710Z,21.90
2018-08-10T13:39:11.850Z,21.80
2018-08-10T13:41:41.434Z,21.90
2018-08-10T13:44:10.379Z,21.80
2018-08-10T13:46:39.106Z,21.80
2018-08-10T13:49:07.802Z,21.80
2018-08-10T13:51:36.493Z,21.80
2018-08-10T13:54:05.063Z,21.80
2018-08-10T13:56:34.091Z,21.70
2018-08-10T13:59:02.889Z,21.80
2018-08-10T14:01:31.891Z,21.70
2018-08-10T14:04:00.876Z,21.70
2018-08-10T14:06:29.547Z,21.70
2018-08-10T14:08:58.060Z,21.70
2018-08-10T14:11:26.896Z,21.70
2018-08-10T14:13:55.494Z,21.80
2018-08-10T14:16:24.442Z,21.70
2018-08-10T14:18:53.172Z,21.70
2018-08-10T14:21:21.737Z,21.70
2018-08-10T14:23:50.493Z,21.70
2018-08-10T14:26:18.980Z,21.60
2018-08-10T14:28:47.618Z,21.60
2018-08-10T14:31:16.133Z,21.60
2018-08-10T14:33:44.719Z,21.70
2018-08-10T14:36:13.338Z,21.70
2018-08-10T14:38:42.035Z,21.80
2018-08-10T14:41:10.695Z,21.70
2018-08-10T14:43:39.254Z,21.60
2018-08-10T14:46:07.854Z,21.70
2018-08-10T14:48:36.663Z,21.70
2018-08-10T14:51:05.411Z,21.80
2018-08-10T14:53:34.161Z,21.70
2018-08-10T14:56:02.678Z,21.80
2018-08-10T14:58:31.612Z,21.70
2018-08-10T15:01:01.874Z,21.80
2018-08-10T15:03:30.450Z,21.80
2018-08-10T15:05:59.236Z,21.80
2018-08-10T15:08:27.803Z,21.90
2018-08-10T15:10:56.400Z,21.90
2018-08-10T15:13:24.914Z,21.90
2018-08-10T15:15:53.564Z,21.90
2018-08-10T15:18:22.174Z,21.90
2018-08-10T15:20:50.640Z,21.90
2018-08-10T15:23:19.356Z,21.80
2018-08-10T15:25:47.928Z,21.80
2018-08-10T15:28:16.659Z,21.70
2018-08-10T15:30:45.330Z,21.70
2018-08-10T15:33:13.869Z,21.60
2018-08-10T15:35:42.583Z,21.60
2018-08-10T15:38:11.343Z,21.50
2018-08-10T15:40:39.915Z,21.50
2018-08-10T15:43:08.471Z,21.50
2018-08-10T15:45:37.071Z,21.50
2018-08-10T15:48:06.011Z,21.40
2018-08-10T15:50:34.648Z,21.40
2018-08-10T15:53:03.315Z,21.40
2018-08-10T15:55:31.882Z,21.40
2018-08-10T15:58:00.496Z,21.30
2018-08-10T16:00:29.205Z,21.40
2018-08-10T16:02:57.944Z,21.50
2018-08-10T16:05:26.494Z,21.50
2018-08-10T16:07:55.087Z,21.50
2018-08-10T16:10:23.747Z,21.50
2018-08-10T16:12:52.335Z,21.50
2018-08-10T16:15:20.855Z,21.40
2018-08-10T16:17:49.334Z,21.40
2018-08-10T16:20:19.511Z,21.40
2018-08-10T16:22:48.500Z,21.30
2018-08-10T16:25:17.122Z,21.30
2018-08-10T16:27:45.990Z,21.30
2018-08-10T16:30:15.830Z,21.40
2018-08-10T16:32:45.321Z,21.40
2018-08-10T16:35:14.909Z,21.40
2018-08-10T16:37:44.837Z,21.40
2018-08-10T16:40:14.875Z,21.40
2018-08-10T16:42:43.975Z,21.50
2018-08-10T16:45:13.475Z,21.50
2018-08-10T16:47:42.217Z,21.50
2018-08-10T16:50:16.124Z,21.40
2018-08-10T16:52:45.242Z,21.40
2018-08-10T16:55:15.591Z,21.40
2018-08-10T16:57:45.305Z,21.40
2018-08-10T17:00:16.580Z,21.40
2018-08-10T17:02:45.760Z,21.40
2018-08-10T17:05:14.847Z,21.40
2018-08-10T17:07:44.863Z,21.40
2018-08-10T17:10:13.678Z,21.40
2018-08-10T17:12:45.556Z,21.30
2018-08-10T17:15:15.932Z,21.40
2018-08-10T17:17:45.619Z,21.40
2018-08-10T17:20:14.885Z,21.30
2018-08-10T17:22:44.221Z,21.30
2018-08-10T17:25:14.875Z,21.30
2018-08-10T17:27:43.389Z,21.30
2018-08-10T17:30:14.082Z,21.30
2018-08-10T17:32:43.005Z,21.30
2018-08-10T17:35:13.266Z,21.30
2018-08-10T17:37:42.930Z,21.20
2018-08-10T17:40:11.608Z,21.20
2018-08-10T17:42:40.644Z,21.20
2018-08-10T17:45:12.396Z,21.10
2018-08-10T17:47:41.082Z,21.10
2018-08-10T17:50:15.161Z,21.10
2018-08-10T17:52:48.298Z,21.00
2018-08-10T17:55:17.718Z,21.00
2018-08-10T17:57:46.871Z,21.00
2018-08-10T18:00:17.730Z,21.00
2018-08-10T18:02:46.944Z,20.90
2018-08-10T18:05:16.761Z,20.90
2018-08-10T18:07:45.916Z,20.90
2018-08-10T18:10:15.280Z,20.90
2018-08-10T18:12:44.719Z,20.90
2018-08-10T18:15:14.808Z,20.90
2018-08-10T18:17:44.119Z,20.90
2018-08-10T18:20:14.951Z,20.90
2018-08-10T18:22:44.895Z,20.90
2018-08-10T18:25:14.570Z,20.80
2018-08-10T18:27:43.739Z,20.80
2018-08-10T18:30:16.714Z,20.80
2018-08-10T18:32:45.866Z,20.70
2018-08-10T18:35:14.637Z,20.70
2018-08-10T18:37:43.910Z,20.60
2018-08-10T18:40:13.716Z,20.60
2018-08-10T18:42:43.684Z,20.60
2018-08-10T18:45:14.041Z,20.60
2018-08-10T18:47:42.800Z,20.50
2018-08-10T18:50:13.097Z,20.50
2018-08-10T18:52:41.882Z,20.50
2018-08-10T18:55:14.386Z,20.40
2018-08-10T18:57:43.343Z,20.40
2018-08-10T19:00:14.238Z,20.40
2018-08-10T19:02:43.141Z,20.40
2018-08-10T19:05:13.330Z,20.30
2018-08-10T19:07:42.443Z,20.30
2018-08-10T19:10:12.125Z,20.20
2018-08-10T19:12:40.819Z,20.20
2018-08-10T19:15:11.659Z,20.10
2018-08-10T19:17:40.707Z,20.10
2018-08-10T19:20:10.187Z,20.00
2018-08-10T19:22:38.919Z,20.00
2018-08-10T19:25:09.621Z,20.00
2018-08-10T19:27:38.322Z,20.00
2018-08-10T19:30:12.875Z,19.90
2018-08-10T19:32:42.168Z,19.80
2018-08-10T19:35:10.900Z,19.80
2018-08-10T19:37:40.059Z,19.70
2018-08-10T19:40:10.949Z,19.70
2018-08-10T19:42:39.666Z,19.70
2018-08-10T19:45:09.889Z,19.70
2018-08-10T19:47:39.113Z,19.60
2018-08-10T19:50:09.242Z,19.60
2018-08-10T19:52:38.247Z,19.50
2018-08-10T19:55:08.618Z,19.50
2018-08-10T19:57:37.535Z,19.40
2018-08-10T20:00:07.068Z,19.40
2018-08-10T20:02:36.139Z,19.40
2018-08-10T20:05:06.344Z,19.30
2018-08-10T20:07:35.077Z,19.30
2018-08-10T20:10:04.922Z,19.20
2018-08-10T20:12:33.522Z,19.10
2018-08-10T20:15:02.190Z,19.10
2018-08-10T20:17:30.815Z,19.10
2018-08-10T20:19:59.558Z,19.00
2018-08-10T20:22:28.248Z,19.00
2018-08-10T20:24:57.319Z,19.00
2018-08-10T20:27:26.180Z,18.90
2018-08-10T20:29:55.053Z,18.80
2018-08-10T20:32:23.823Z,18.80
2018-08-10T20:34:52.674Z,18.80
2018-08-10T20:37:21.583Z,18.80
2018-08-10T20:39:50.291Z,18.70
2018-08-10T20:42:18.892Z,18.70
2018-08-10T20:44:47.672Z,18.70
2018-08-10T20:47:16.435Z,18.60
2018-08-10T20:49:45.039Z,18.60
2018-08-10T20:52:13.814Z,18.60
2018-08-10T20:54:42.460Z,18.60
2018-08-10T20:57:11.140Z,18.60
2018-08-10T20:59:39.742Z,18.60
2018-08-10T21:02:08.427Z,18.60
2018-08-10T21:04:37.039Z,18.60
2018-08-10T21:07:05.610Z,18.60
2018-08-10T21:09:34.172Z,18.50
2018-08-10T21:12:02.863Z,18.40
2018-08-10T21:14:31.643Z,18.40
2018-08-10T21:17:00.267Z,18.40
2018-08-10T21:19:29.176Z,18.40
2018-08-10T21:21:57.675Z,18.30
2018-08-10T21:24:26.267Z,18.30
2018-08-10T21:26:54.844Z,18.30
2018-08-10T21:29:23.552Z,18.30
2018-08-10T21:31:52.197Z,18.30
2018-08-10T21:34:20.906Z,18.30
2018-08-10T21:36:49.455Z,18.30
2018-08-10T21:39:18.050Z,18.20
2018-08-10T21:41:46.704Z,18.20
2018-08-10T21:44:15.435Z,18.20
2018-08-10T21:46:43.927Z,18.10
2018-08-10T21:49:12.564Z,18.10
2018-08-10T21:51:41.319Z,18.10
2018-08-10T21:54:10.100Z,18.10
2018-08-10T21:56:38.722Z,18.10
2018-08-10T21:59:07.277Z,18.10
2018-08-10T22:01:36.003Z,18.00
2018-08-10T22:04:04.723Z,18.00
2018-08-10T22:06:33.674Z,18.00
2018-08-10T22:09:02.602Z,18.00
2018-08-10T22:11:31.106Z,18.00
2018-08-10T22:14:04.905Z,18.00
2018-08-10T22:16:38.855Z,18.00
2018-08-10T22:19:12.897Z,18.00
2018-08-10T22:21:42.557Z,17.90
2018-08-10T22:24:11.183Z,17.90
2018-08-10T22:26:39.733Z,17.90
2018-08-10T22:29:08.324Z,17.80
2018-08-10T22:31:37.099Z,17.80
2018-08-10T22:34:06.178Z,17.70
2018-08-10T22:36:34.963Z,17.80
2018-08-10T22:39:04.455Z,17.80
2018-08-10T22:41:33.022Z,17.70
2018-08-10T22:44:01.632Z,17.70
2018-08-10T22:46:30.134Z,17.60
2018-08-10T22:48:58.785Z,17.60
2018-08-10T22:51:27.298Z,17.60
2018-08-10T22:53:56.019Z,17.60
2018-08-10T22:56:24.747Z,17.60
2018-08-10T22:58:53.358Z,17.60
2018-08-10T23:01:22.218Z,17.60
2018-08-10T23:03:50.800Z,17.60
2018-08-10T23:06:19.400Z,17.60
2018-08-10T23:08:48.056Z,17.60
2018-08-10T23:11:16.560Z,17.60
2018-08-10T23:13:45.368Z,17.50
2018-08-10T23:16:13.944Z,17.60
2018-08-10T23:18:42.534Z,17.60
2018-08-10T23:21:11.154Z,17.60
2018-08-10T23:23:40.035Z,17.60
2018-08-10T23:26:08.843Z,17.60
2018-08-10T23:28:37.450Z,17.50
2018-08-10T23:31:06.337Z,17.50
2018-08-10T23:33:34.923Z,17.50
2018-08-10T23:36:03.467Z,17.50
2018-08-10T23:38:32.004Z,17.50
2018-08-10T23:41:00.536Z,17.50
2018-08-10T23:43:29.264Z,17.50
2018-08-10T23:45:57.870Z,17.50
2018-08-10T23:48:26.414Z,17.50
2018-08-10T23:50:54.947Z,17.50
2018-08-10T23:53:23.491Z,17.50
2018-08-10T23:55:52.016Z,17.40
2018-08-10T23:58:20.575Z,17.40
